sensor_id;sensor_type;location;lat;lon;timestamp;pressure;altitude;pressure_sealevel;temperature;humidity
77017;BME280;65949;53.132;17.930;2024-01-07T00:00:40;101517.80;;;-5.43;74.88
77017;BME280;65949;53.132;17.930;2024-01-07T00:03:26;101515.00;;;-5.46;74.88
77017;BME280;65949;53.132;17.930;2024-01-07T00:05:53;101514.40;;;-5.49;74.89
77017;BME280;65949;53.132;17.930;2024-01-07T00:08:20;101514.94;;;-5.51;75.04
77017;BME280;65949;53.132;17.930;2024-01-07T00:10:47;101521.66;;;-5.53;75.03
77017;BME280;65949;53.132;17.930;2024-01-07T00:13:14;101519.01;;;-5.55;74.94
77017;BME280;65949;53.132;17.930;2024-01-07T00:15:41;101521.45;;;-5.58;75.04
77017;BME280;65949;53.132;17.930;2024-01-07T00:18:07;101526.66;;;-5.61;75.17
77017;BME280;65949;53.132;17.930;2024-01-07T00:20:34;101530.27;;;-5.64;75.29
77017;BME280;65949;53.132;17.930;2024-01-07T00:23:00;101530.31;;;-5.67;75.35
77017;BME280;65949;53.132;17.930;2024-01-07T00:25:27;101532.52;;;-5.69;75.47
77017;BME280;65949;53.132;17.930;2024-01-07T00:27:54;101533.81;;;-5.72;75.61
77017;BME280;65949;53.132;17.930;2024-01-07T00:30:22;101538.45;;;-5.75;75.63
77017;BME280;65949;53.132;17.930;2024-01-07T00:32:50;101540.98;;;-5.77;75.64
77017;BME280;65949;53.132;17.930;2024-01-07T00:35:19;101542.48;;;-5.79;75.49
77017;BME280;65949;53.132;17.930;2024-01-07T00:37:47;101541.67;;;-5.81;75.71
77017;BME280;65949;53.132;17.930;2024-01-07T00:40:13;101543.05;;;-5.83;76.02
77017;BME280;65949;53.132;17.930;2024-01-07T00:42:40;101546.02;;;-5.84;75.67
77017;BME280;65949;53.132;17.930;2024-01-07T00:45:07;101546.09;;;-5.87;75.54
77017;BME280;65949;53.132;17.930;2024-01-07T00:47:35;101553.38;;;-5.87;75.77
77017;BME280;65949;53.132;17.930;2024-01-07T00:50:01;101549.60;;;-5.89;75.74
77017;BME280;65949;53.132;17.930;2024-01-07T00:52:28;101548.41;;;-5.90;75.55
77017;BME280;65949;53.132;17.930;2024-01-07T00:54:55;101543.44;;;-5.92;75.55
77017;BME280;65949;53.132;17.930;2024-01-07T00:57:22;101540.02;;;-5.91;75.46
77017;BME280;65949;53.132;17.930;2024-01-07T00:59:48;101541.09;;;-5.92;75.27
77017;BME280;65949;53.132;17.930;2024-01-07T01:02:17;101538.97;;;-5.93;75.62
77017;BME280;65949;53.132;17.930;2024-01-07T01:04:50;101542.59;;;-5.94;75.57
77017;BME280;65949;53.132;17.930;2024-01-07T01:07:16;101541.75;;;-5.96;75.67
77017;BME280;65949;53.132;17.930;2024-01-07T01:09:43;101541.73;;;-5.98;75.54
77017;BME280;65949;53.132;17.930;2024-01-07T01:12:10;101539.84;;;-5.99;75.23
77017;BME280;65949;53.132;17.930;2024-01-07T01:14:36;101538.34;;;-6.00;75.23
77017;BME280;65949;53.132;17.930;2024-01-07T01:17:03;101543.97;;;-6.00;75.26
77017;BME280;65949;53.132;17.930;2024-01-07T01:19:30;101540.68;;;-6.01;74.94
77017;BME280;65949;53.132;17.930;2024-01-07T01:21:57;101539.22;;;-6.02;75.00
77017;BME280;65949;53.132;17.930;2024-01-07T01:24:27;101541.80;;;-6.02;74.99
77017;BME280;65949;53.132;17.930;2024-01-07T01:26:54;101543.58;;;-6.03;74.92
77017;BME280;65949;53.132;17.930;2024-01-07T01:29:22;101551.70;;;-6.04;74.82
77017;BME280;65949;53.132;17.930;2024-01-07T01:31:48;101554.70;;;-6.05;74.89
77017;BME280;65949;53.132;17.930;2024-01-07T01:34:15;101556.27;;;-6.08;75.09
77017;BME280;65949;53.132;17.930;2024-01-07T01:36:43;101560.10;;;-6.09;75.15
77017;BME280;65949;53.132;17.930;2024-01-07T01:39:10;101562.39;;;-6.12;75.32
77017;BME280;65949;53.132;17.930;2024-01-07T01:41:37;101570.48;;;-6.14;75.36
77017;BME280;65949;53.132;17.930;2024-01-07T01:44:03;101575.55;;;-6.16;75.68
77017;BME280;65949;53.132;17.930;2024-01-07T01:46:32;101572.13;;;-6.19;75.84
77017;BME280;65949;53.132;17.930;2024-01-07T01:48:59;101570.66;;;-6.22;76.02
77017;BME280;65949;53.132;17.930;2024-01-07T01:51:26;101567.36;;;-6.26;76.27
77017;BME280;65949;53.132;17.930;2024-01-07T01:53:54;101571.86;;;-6.29;76.35
77017;BME280;65949;53.132;17.930;2024-01-07T01:56:22;101573.59;;;-6.31;76.71
77017;BME280;65949;53.132;17.930;2024-01-07T01:58:50;101577.58;;;-6.35;76.54
77017;BME280;65949;53.132;17.930;2024-01-07T02:01:18;101578.98;;;-6.38;76.70
77017;BME280;65949;53.132;17.930;2024-01-07T02:03:44;101576.73;;;-6.41;76.95
77017;BME280;65949;53.132;17.930;2024-01-07T02:06:11;101578.67;;;-6.44;76.93
77017;BME280;65949;53.132;17.930;2024-01-07T02:08:39;101573.47;;;-6.47;77.10
77017;BME280;65949;53.132;17.930;2024-01-07T02:11:15;101576.59;;;-6.50;77.14
77017;BME280;65949;53.132;17.930;2024-01-07T02:13:43;101575.55;;;-6.52;77.27
77017;BME280;65949;53.132;17.930;2024-01-07T02:16:10;101579.57;;;-6.53;77.13
77017;BME280;65949;53.132;17.930;2024-01-07T02:18:40;101575.98;;;-6.55;77.42
77017;BME280;65949;53.132;17.930;2024-01-07T02:21:14;101576.52;;;-6.58;77.35
77017;BME280;65949;53.132;17.930;2024-01-07T02:23:42;101578.36;;;-6.59;77.46
77017;BME280;65949;53.132;17.930;2024-01-07T02:26:09;101574.67;;;-6.59;77.47
77017;BME280;65949;53.132;17.930;2024-01-07T02:28:37;101579.77;;;-6.60;77.46
77017;BME280;65949;53.132;17.930;2024-01-07T02:31:03;101587.31;;;-6.61;78.02
77017;BME280;65949;53.132;17.930;2024-01-07T02:33:32;101594.73;;;-6.63;77.84
77017;BME280;65949;53.132;17.930;2024-01-07T02:35:59;101595.70;;;-6.65;77.67
77017;BME280;65949;53.132;17.930;2024-01-07T02:38:27;101599.31;;;-6.66;78.12
77017;BME280;65949;53.132;17.930;2024-01-07T02:40:54;101597.43;;;-6.70;78.16
77017;BME280;65949;53.132;17.930;2024-01-07T02:43:21;101595.79;;;-6.74;78.44
77017;BME280;65949;53.132;17.930;2024-01-07T02:45:48;101601.86;;;-6.79;78.46
77017;BME280;65949;53.132;17.930;2024-01-07T02:48:14;101603.81;;;-6.82;78.35
77017;BME280;65949;53.132;17.930;2024-01-07T02:50:41;101609.68;;;-6.84;78.70
77017;BME280;65949;53.132;17.930;2024-01-07T02:53:08;101611.80;;;-6.87;79.11
77017;BME280;65949;53.132;17.930;2024-01-07T02:55:36;101609.09;;;-6.91;78.93
77017;BME280;65949;53.132;17.930;2024-01-07T02:58:02;101610.64;;;-6.94;78.85
77017;BME280;65949;53.132;17.930;2024-01-07T03:00:29;101602.33;;;-6.96;78.52
77017;BME280;65949;53.132;17.930;2024-01-07T03:02:56;101600.51;;;-6.96;78.68
77017;BME280;65949;53.132;17.930;2024-01-07T03:05:22;101601.87;;;-6.98;79.01
77017;BME280;65949;53.132;17.930;2024-01-07T03:07:50;101605.70;;;-6.98;79.08
77017;BME280;65949;53.132;17.930;2024-01-07T03:10:17;101609.64;;;-6.96;79.07
77017;BME280;65949;53.132;17.930;2024-01-07T03:12:44;101607.95;;;-6.96;78.95
77017;BME280;65949;53.132;17.930;2024-01-07T03:15:11;101611.59;;;-6.95;78.87
77017;BME280;65949;53.132;17.930;2024-01-07T03:17:40;101609.14;;;-6.96;79.02
77017;BME280;65949;53.132;17.930;2024-01-07T03:20:10;101608.27;;;-6.98;78.86
77017;BME280;65949;53.132;17.930;2024-01-07T03:22:41;101611.27;;;-7.02;78.93
77017;BME280;65949;53.132;17.930;2024-01-07T03:25:10;101612.75;;;-7.04;78.68
77017;BME280;65949;53.132;17.930;2024-01-07T03:27:37;101610.38;;;-7.06;78.88
77017;BME280;65949;53.132;17.930;2024-01-07T03:30:03;101610.67;;;-7.08;79.17
77017;BME280;65949;53.132;17.930;2024-01-07T03:32:30;101610.52;;;-7.10;79.78
77017;BME280;65949;53.132;17.930;2024-01-07T03:34:57;101616.70;;;-7.11;79.46
77017;BME280;65949;53.132;17.930;2024-01-07T03:37:23;101617.02;;;-7.13;79.95
77017;BME280;65949;53.132;17.930;2024-01-07T03:39:50;101622.17;;;-7.14;79.94
77017;BME280;65949;53.132;17.930;2024-01-07T03:42:17;101616.45;;;-7.14;79.93
77017;BME280;65949;53.132;17.930;2024-01-07T03:44:44;101617.72;;;-7.14;79.88
77017;BME280;65949;53.132;17.930;2024-01-07T03:47:11;101618.27;;;-7.14;80.08
77017;BME280;65949;53.132;17.930;2024-01-07T03:49:37;101621.48;;;-7.14;79.85
77017;BME280;65949;53.132;17.930;2024-01-07T03:52:05;101622.45;;;-7.13;79.80
77017;BME280;65949;53.132;17.930;2024-01-07T03:54:33;101620.44;;;-7.13;80.16
77017;BME280;65949;53.132;17.930;2024-01-07T03:57:00;101621.73;;;-7.13;79.63
77017;BME280;65949;53.132;17.930;2024-01-07T03:59:26;101623.84;;;-7.12;79.63
77017;BME280;65949;53.132;17.930;2024-01-07T04:01:56;101619.58;;;-7.09;79.71
77017;BME280;65949;53.132;17.930;2024-01-07T04:04:23;101618.13;;;-7.07;79.91
77017;BME280;65949;53.132;17.930;2024-01-07T04:06:49;101621.70;;;-7.06;80.01
77017;BME280;65949;53.132;17.930;2024-01-07T04:09:18;101622.41;;;-7.04;80.03
77017;BME280;65949;53.132;17.930;2024-01-07T04:11:45;101624.29;;;-7.02;79.88
77017;BME280;65949;53.132;17.930;2024-01-07T04:14:17;101624.23;;;-6.99;79.73
77017;BME280;65949;53.132;17.930;2024-01-07T04:16:43;101627.85;;;-6.98;79.42
77017;BME280;65949;53.132;17.930;2024-01-07T04:19:10;101630.52;;;-6.95;79.53
77017;BME280;65949;53.132;17.930;2024-01-07T04:21:39;101637.04;;;-6.92;79.36
77017;BME280;65949;53.132;17.930;2024-01-07T04:24:05;101634.43;;;-6.89;79.36
77017;BME280;65949;53.132;17.930;2024-01-07T04:26:32;101641.96;;;-6.84;79.40
77017;BME280;65949;53.132;17.930;2024-01-07T04:28:58;101639.10;;;-6.80;79.34
77017;BME280;65949;53.132;17.930;2024-01-07T04:31:25;101644.03;;;-6.76;79.37
77017;BME280;65949;53.132;17.930;2024-01-07T04:33:53;101646.34;;;-6.73;79.16
77017;BME280;65949;53.132;17.930;2024-01-07T04:36:19;101645.58;;;-6.69;79.21
77017;BME280;65949;53.132;17.930;2024-01-07T04:38:46;101643.79;;;-6.66;78.99
77017;BME280;65949;53.132;17.930;2024-01-07T04:41:14;101649.89;;;-6.62;78.59
77017;BME280;65949;53.132;17.930;2024-01-07T04:43:42;101643.77;;;-6.57;78.59
77017;BME280;65949;53.132;17.930;2024-01-07T04:46:10;101640.26;;;-6.54;78.69
77017;BME280;65949;53.132;17.930;2024-01-07T04:48:37;101641.36;;;-6.48;78.04
77017;BME280;65949;53.132;17.930;2024-01-07T04:51:07;101638.01;;;-6.44;77.95
77017;BME280;65949;53.132;17.930;2024-01-07T04:53:35;101637.40;;;-6.41;78.30
77017;BME280;65949;53.132;17.930;2024-01-07T04:56:02;101644.45;;;-6.38;78.17
77017;BME280;65949;53.132;17.930;2024-01-07T04:58:29;101654.84;;;-6.35;78.21
77017;BME280;65949;53.132;17.930;2024-01-07T05:00:56;101655.77;;;-6.31;78.25
77017;BME280;65949;53.132;17.930;2024-01-07T05:03:22;101654.98;;;-6.30;77.85
77017;BME280;65949;53.132;17.930;2024-01-07T05:05:49;101654.61;;;-6.30;77.46
77017;BME280;65949;53.132;17.930;2024-01-07T05:08:16;101656.52;;;-6.28;77.84
77017;BME280;65949;53.132;17.930;2024-01-07T05:10:43;101656.63;;;-6.25;77.93
77017;BME280;65949;53.132;17.930;2024-01-07T05:13:09;101658.27;;;-6.25;77.31
77017;BME280;65949;53.132;17.930;2024-01-07T05:15:38;101659.08;;;-6.24;76.62
77017;BME280;65949;53.132;17.930;2024-01-07T05:18:07;101661.34;;;-6.25;76.58
77017;BME280;65949;53.132;17.930;2024-01-07T05:20:36;101663.23;;;-6.26;76.36
77017;BME280;65949;53.132;17.930;2024-01-07T05:23:04;101663.36;;;-6.25;76.83
77017;BME280;65949;53.132;17.930;2024-01-07T05:25:31;101668.95;;;-6.25;76.31
77017;BME280;65949;53.132;17.930;2024-01-07T05:27:57;101669.73;;;-6.24;76.50
77017;BME280;65949;53.132;17.930;2024-01-07T05:30:24;101670.70;;;-6.22;76.31
77017;BME280;65949;53.132;17.930;2024-01-07T05:32:50;101671.99;;;-6.21;75.66
77017;BME280;65949;53.132;17.930;2024-01-07T05:35:17;101670.73;;;-6.22;75.85
77017;BME280;65949;53.132;17.930;2024-01-07T05:37:44;101672.70;;;-6.23;75.78
77017;BME280;65949;53.132;17.930;2024-01-07T05:40:11;101677.73;;;-6.25;76.19
77017;BME280;65949;53.132;17.930;2024-01-07T05:42:38;101679.11;;;-6.25;75.95
77017;BME280;65949;53.132;17.930;2024-01-07T05:45:07;101678.47;;;-6.26;76.10
77017;BME280;65949;53.132;17.930;2024-01-07T05:47:35;101678.76;;;-6.27;76.29
77017;BME280;65949;53.132;17.930;2024-01-07T05:50:03;101683.27;;;-6.27;76.53
77017;BME280;65949;53.132;17.930;2024-01-07T05:52:33;101682.42;;;-6.26;76.35
77017;BME280;65949;53.132;17.930;2024-01-07T05:54:59;101682.55;;;-6.26;76.45
77017;BME280;65949;53.132;17.930;2024-01-07T05:57:28;101689.19;;;-6.24;76.70
77017;BME280;65949;53.132;17.930;2024-01-07T05:59:55;101688.08;;;-6.23;76.76
77017;BME280;65949;53.132;17.930;2024-01-07T06:02:22;101692.17;;;-6.26;76.02
77017;BME280;65949;53.132;17.930;2024-01-07T06:04:53;101692.98;;;-6.30;75.95
77017;BME280;65949;53.132;17.930;2024-01-07T06:07:19;101693.49;;;-6.34;75.81
77017;BME280;65949;53.132;17.930;2024-01-07T06:09:46;101701.98;;;-6.36;76.33
77017;BME280;65949;53.132;17.930;2024-01-07T06:12:13;101701.64;;;-6.36;76.01
77017;BME280;65949;53.132;17.930;2024-01-07T06:14:39;101702.15;;;-6.36;76.38
77017;BME280;65949;53.132;17.930;2024-01-07T06:17:07;101703.39;;;-6.37;76.39
77017;BME280;65949;53.132;17.930;2024-01-07T06:19:35;101704.51;;;-6.39;76.42
77017;BME280;65949;53.132;17.930;2024-01-07T06:22:03;101706.92;;;-6.41;76.39
77017;BME280;65949;53.132;17.930;2024-01-07T06:24:30;101711.19;;;-6.42;76.71
77017;BME280;65949;53.132;17.930;2024-01-07T06:26:57;101707.16;;;-6.42;76.89
77017;BME280;65949;53.132;17.930;2024-01-07T06:29:24;101705.50;;;-6.42;76.76
77017;BME280;65949;53.132;17.930;2024-01-07T06:31:50;101701.78;;;-6.45;76.52
77017;BME280;65949;53.132;17.930;2024-01-07T06:34:17;101704.54;;;-6.50;76.17
77017;BME280;65949;53.132;17.930;2024-01-07T06:36:46;101702.63;;;-6.56;76.57
77017;BME280;65949;53.132;17.930;2024-01-07T06:39:13;101702.77;;;-6.62;76.32
77017;BME280;65949;53.132;17.930;2024-01-07T06:41:42;101706.53;;;-6.67;76.49
77017;BME280;65949;53.132;17.930;2024-01-07T06:44:08;101707.62;;;-6.72;76.51
77017;BME280;65949;53.132;17.930;2024-01-07T06:46:35;101702.20;;;-6.76;76.68
77017;BME280;65949;53.132;17.930;2024-01-07T06:49:02;101697.48;;;-6.81;76.69
77017;BME280;65949;53.132;17.930;2024-01-07T06:51:29;101701.13;;;-6.84;76.85
77017;BME280;65949;53.132;17.930;2024-01-07T06:53:56;101701.98;;;-6.87;76.63
77017;BME280;65949;53.132;17.930;2024-01-07T06:56:24;101702.27;;;-6.90;76.79
77017;BME280;65949;53.132;17.930;2024-01-07T06:58:52;101706.08;;;-6.94;76.50
77017;BME280;65949;53.132;17.930;2024-01-07T07:01:22;101711.39;;;-6.95;76.58
77017;BME280;65949;53.132;17.930;2024-01-07T07:03:51;101708.77;;;-6.98;76.81
77017;BME280;65949;53.132;17.930;2024-01-07T07:06:20;101714.03;;;-6.98;76.74
77017;BME280;65949;53.132;17.930;2024-01-07T07:08:47;101714.54;;;-7.01;76.56
77017;BME280;65949;53.132;17.930;2024-01-07T07:11:15;101721.56;;;-7.02;76.48
77017;BME280;65949;53.132;17.930;2024-01-07T07:13:42;101723.42;;;-7.04;75.75
77017;BME280;65949;53.132;17.930;2024-01-07T07:16:09;101724.52;;;-7.08;75.63
77017;BME280;65949;53.132;17.930;2024-01-07T07:18:36;101736.23;;;-7.11;75.80
77017;BME280;65949;53.132;17.930;2024-01-07T07:21:02;101740.27;;;-7.13;75.96
77017;BME280;65949;53.132;17.930;2024-01-07T07:23:30;101741.60;;;-7.15;75.67
77017;BME280;65949;53.132;17.930;2024-01-07T07:25:57;101743.23;;;-7.18;75.51
77017;BME280;65949;53.132;17.930;2024-01-07T07:28:23;101744.98;;;-7.22;75.61
77017;BME280;65949;53.132;17.930;2024-01-07T07:30:50;101753.25;;;-7.24;75.22
77017;BME280;65949;53.132;17.930;2024-01-07T07:33:17;101756.38;;;-7.25;75.44
77017;BME280;65949;53.132;17.930;2024-01-07T07:35:45;101755.26;;;-7.24;75.49
77017;BME280;65949;53.132;17.930;2024-01-07T07:38:14;101749.50;;;-7.25;74.81
77017;BME280;65949;53.132;17.930;2024-01-07T07:40:41;101751.60;;;-7.29;74.80
77017;BME280;65949;53.132;17.930;2024-01-07T07:43:09;101753.61;;;-7.29;74.89
77017;BME280;65949;53.132;17.930;2024-01-07T07:45:37;101756.09;;;-7.28;74.91
77017;BME280;65949;53.132;17.930;2024-01-07T07:48:05;101753.21;;;-7.30;74.73
77017;BME280;65949;53.132;17.930;2024-01-07T07:50:32;101754.96;;;-7.31;74.55
77017;BME280;65949;53.132;17.930;2024-01-07T07:52:58;101756.98;;;-7.31;74.56
77017;BME280;65949;53.132;17.930;2024-01-07T07:55:27;101761.45;;;-7.32;74.78
77017;BME280;65949;53.132;17.930;2024-01-07T07:57:54;101756.95;;;-7.33;74.89
77017;BME280;65949;53.132;17.930;2024-01-07T08:00:24;101759.77;;;-7.35;74.92
77017;BME280;65949;53.132;17.930;2024-01-07T08:02:50;101767.35;;;-7.34;74.56
77017;BME280;65949;53.132;17.930;2024-01-07T08:05:18;101771.75;;;-7.34;74.96
77017;BME280;65949;53.132;17.930;2024-01-07T08:07:45;101768.90;;;-7.35;74.82
77017;BME280;65949;53.132;17.930;2024-01-07T08:10:11;101768.90;;;-7.37;74.08
77017;BME280;65949;53.132;17.930;2024-01-07T08:12:38;101775.80;;;-7.39;74.63
77017;BME280;65949;53.132;17.930;2024-01-07T08:15:05;101782.27;;;-7.40;73.83
77017;BME280;65949;53.132;17.930;2024-01-07T08:17:32;101781.14;;;-7.41;74.62
77017;BME280;65949;53.132;17.930;2024-01-07T08:19:59;101784.06;;;-7.39;74.83
77017;BME280;65949;53.132;17.930;2024-01-07T08:22:27;101783.16;;;-7.33;74.50
77017;BME280;65949;53.132;17.930;2024-01-07T08:24:54;101790.71;;;-7.30;73.94
77017;BME280;65949;53.132;17.930;2024-01-07T08:27:20;101788.41;;;-7.34;73.19
77017;BME280;65949;53.132;17.930;2024-01-07T08:29:48;101792.36;;;-7.39;71.40
77017;BME280;65949;53.132;17.930;2024-01-07T08:32:15;101792.75;;;-7.50;69.50
77017;BME280;65949;53.132;17.930;2024-01-07T08:34:44;101794.05;;;-7.61;69.04
77017;BME280;65949;53.132;17.930;2024-01-07T08:37:11;101793.73;;;-7.66;69.00
77017;BME280;65949;53.132;17.930;2024-01-07T08:39:38;101799.91;;;-7.67;69.31
77017;BME280;65949;53.132;17.930;2024-01-07T08:42:06;101801.74;;;-7.65;69.90
77017;BME280;65949;53.132;17.930;2024-01-07T08:44:34;101807.48;;;-7.62;67.88
77017;BME280;65949;53.132;17.930;2024-01-07T08:47:01;101808.50;;;-7.62;67.29
77017;BME280;65949;53.132;17.930;2024-01-07T08:49:28;101811.94;;;-7.63;67.32
77017;BME280;65949;53.132;17.930;2024-01-07T08:51:58;101812.86;;;-7.62;66.92
77017;BME280;65949;53.132;17.930;2024-01-07T08:54:28;101810.88;;;-7.63;67.70
77017;BME280;65949;53.132;17.930;2024-01-07T08:56:55;101806.75;;;-7.68;65.93
77017;BME280;65949;53.132;17.930;2024-01-07T08:59:22;101814.81;;;-7.70;67.64
77017;BME280;65949;53.132;17.930;2024-01-07T09:01:50;101811.26;;;-7.68;67.91
77017;BME280;65949;53.132;17.930;2024-01-07T09:04:21;101815.05;;;-7.66;67.57
77017;BME280;65949;53.132;17.930;2024-01-07T09:07:03;101816.46;;;-7.67;67.89
77017;BME280;65949;53.132;17.930;2024-01-07T09:09:30;101818.48;;;-7.72;67.10
77017;BME280;65949;53.132;17.930;2024-01-07T09:11:57;101822.56;;;-7.75;68.11
77017;BME280;65949;53.132;17.930;2024-01-07T09:14:25;101826.50;;;-7.81;66.34
77017;BME280;65949;53.132;17.930;2024-01-07T09:16:53;101824.91;;;-7.84;66.83
77017;BME280;65949;53.132;17.930;2024-01-07T09:19:21;101834.88;;;-7.92;66.45
77017;BME280;65949;53.132;17.930;2024-01-07T09:21:48;101838.70;;;-7.91;67.10
77017;BME280;65949;53.132;17.930;2024-01-07T09:24:15;101845.11;;;-7.84;67.96
77017;BME280;65949;53.132;17.930;2024-01-07T09:26:41;101842.05;;;-7.79;68.11
77017;BME280;65949;53.132;17.930;2024-01-07T09:29:08;101841.84;;;-7.73;68.30
77017;BME280;65949;53.132;17.930;2024-01-07T09:31:35;101844.61;;;-7.67;68.44
77017;BME280;65949;53.132;17.930;2024-01-07T09:34:03;101835.86;;;-7.70;67.12
77017;BME280;65949;53.132;17.930;2024-01-07T09:36:30;101835.99;;;-7.76;67.46
77017;BME280;65949;53.132;17.930;2024-01-07T09:38:57;101838.15;;;-7.78;66.88
77017;BME280;65949;53.132;17.930;2024-01-07T09:41:24;101842.03;;;-7.83;66.56
77017;BME280;65949;53.132;17.930;2024-01-07T09:43:51;101846.44;;;-7.86;66.12
77017;BME280;65949;53.132;17.930;2024-01-07T09:46:21;101852.02;;;-7.86;66.24
77017;BME280;65949;53.132;17.930;2024-01-07T09:48:50;101854.17;;;-7.90;65.71
77017;BME280;65949;53.132;17.930;2024-01-07T09:51:21;101845.58;;;-7.93;65.88
77017;BME280;65949;53.132;17.930;2024-01-07T09:53:54;101850.35;;;-7.96;66.01
77017;BME280;65949;53.132;17.930;2024-01-07T09:56:25;101848.08;;;-8.00;66.04
77017;BME280;65949;53.132;17.930;2024-01-07T09:58:53;101848.25;;;-8.09;66.09
77017;BME280;65949;53.132;17.930;2024-01-07T10:01:20;101849.64;;;-8.10;66.57
77017;BME280;65949;53.132;17.930;2024-01-07T10:03:47;101843.20;;;-8.10;65.87
77017;BME280;65949;53.132;17.930;2024-01-07T10:06:18;101838.15;;;-8.10;66.69
77017;BME280;65949;53.132;17.930;2024-01-07T10:08:46;101836.93;;;-8.09;65.71
77017;BME280;65949;53.132;17.930;2024-01-07T10:11:15;101832.95;;;-8.12;65.90
77017;BME280;65949;53.132;17.930;2024-01-07T10:13:45;101838.44;;;-8.11;66.97
77017;BME280;65949;53.132;17.930;2024-01-07T10:16:13;101836.17;;;-8.03;66.84
77017;BME280;65949;53.132;17.930;2024-01-07T10:18:41;101831.75;;;-8.02;65.47
77017;BME280;65949;53.132;17.930;2024-01-07T10:21:08;101841.27;;;-8.11;65.96
77017;BME280;65949;53.132;17.930;2024-01-07T10:23:35;101842.39;;;-8.15;65.84
77017;BME280;65949;53.132;17.930;2024-01-07T10:26:02;101840.51;;;-8.15;65.89
77017;BME280;65949;53.132;17.930;2024-01-07T10:28:30;101827.69;;;-8.14;66.04
77017;BME280;65949;53.132;17.930;2024-01-07T10:30:58;101832.02;;;-8.11;66.15
77017;BME280;65949;53.132;17.930;2024-01-07T10:33:30;101825.38;;;-8.05;66.48
77017;BME280;65949;53.132;17.930;2024-01-07T10:36:02;101827.31;;;-8.02;65.19
77017;BME280;65949;53.132;17.930;2024-01-07T10:38:31;101829.23;;;-8.03;65.79
77017;BME280;65949;53.132;17.930;2024-01-07T10:41:01;101833.58;;;-8.00;65.49
77017;BME280;65949;53.132;17.930;2024-01-07T10:43:30;101830.14;;;-8.01;64.69
77017;BME280;65949;53.132;17.930;2024-01-07T10:46:00;101825.11;;;-8.07;64.53
77017;BME280;65949;53.132;17.930;2024-01-07T10:48:30;101821.52;;;-8.08;64.23
77017;BME280;65949;53.132;17.930;2024-01-07T10:51:00;101827.94;;;-8.04;64.47
77017;BME280;65949;53.132;17.930;2024-01-07T10:53:33;101827.08;;;-8.01;63.94
77017;BME280;65949;53.132;17.930;2024-01-07T10:56:08;101831.92;;;-8.07;63.68
77017;BME280;65949;53.132;17.930;2024-01-07T10:58:39;101835.52;;;-8.06;64.09
77017;BME280;65949;53.132;17.930;2024-01-07T11:01:06;101833.23;;;-8.00;64.07
77017;BME280;65949;53.132;17.930;2024-01-07T11:03:55;101837.45;;;-7.95;64.43
77017;BME280;65949;53.132;17.930;2024-01-07T11:06:42;101835.34;;;-7.91;64.45
77017;BME280;65949;53.132;17.930;2024-01-07T11:11:53;101835.55;;;-7.92;62.55
77017;BME280;65949;53.132;17.930;2024-01-07T11:14:40;101836.10;;;-7.92;62.14
77017;BME280;65949;53.132;17.930;2024-01-07T11:17:11;101832.90;;;-7.97;61.82
77017;BME280;65949;53.132;17.930;2024-01-07T11:19:51;101835.91;;;-7.99;62.42
77017;BME280;65949;53.132;17.930;2024-01-07T11:22:26;101833.35;;;-7.96;62.16
77017;BME280;65949;53.132;17.930;2024-01-07T11:24:57;101829.64;;;-7.99;61.60
77017;BME280;65949;53.132;17.930;2024-01-07T11:27:25;101829.98;;;-8.04;62.31
77017;BME280;65949;53.132;17.930;2024-01-07T11:30:04;101824.82;;;-8.02;62.76
77017;BME280;65949;53.132;17.930;2024-01-07T11:32:33;101818.99;;;-8.03;62.89
77017;BME280;65949;53.132;17.930;2024-01-07T11:35:03;101822.09;;;-7.95;63.81
77017;BME280;65949;53.132;17.930;2024-01-07T11:37:30;101825.59;;;-7.82;63.40
77017;BME280;65949;53.132;17.930;2024-01-07T11:39:57;101830.21;;;-7.76;62.94
77017;BME280;65949;53.132;17.930;2024-01-07T11:42:24;101824.73;;;-7.70;62.66
77017;BME280;65949;53.132;17.930;2024-01-07T11:44:55;101824.85;;;-7.64;63.03
77017;BME280;65949;53.132;17.930;2024-01-07T11:47:23;101822.95;;;-7.59;62.74
77017;BME280;65949;53.132;17.930;2024-01-07T11:49:50;101822.48;;;-7.57;62.51
77017;BME280;65949;53.132;17.930;2024-01-07T11:52:17;101821.95;;;-7.54;62.84
77017;BME280;65949;53.132;17.930;2024-01-07T11:54:44;101826.06;;;-7.48;63.41
77017;BME280;65949;53.132;17.930;2024-01-07T11:57:13;101828.64;;;-7.39;63.20
77017;BME280;65949;53.132;17.930;2024-01-07T11:59:41;101829.71;;;-7.45;62.99
77017;BME280;65949;53.132;17.930;2024-01-07T12:02:09;101827.27;;;-7.51;62.72
77017;BME280;65949;53.132;17.930;2024-01-07T12:04:36;101823.04;;;-7.63;63.07
77017;BME280;65949;53.132;17.930;2024-01-07T12:07:04;101822.97;;;-7.62;63.90
77017;BME280;65949;53.132;17.930;2024-01-07T12:09:31;101824.26;;;-7.58;64.04
77017;BME280;65949;53.132;17.930;2024-01-07T12:11:58;101827.95;;;-7.51;64.38
77017;BME280;65949;53.132;17.930;2024-01-07T12:14:28;101824.48;;;-7.40;63.96
77017;BME280;65949;53.132;17.930;2024-01-07T12:17:01;101826.13;;;-7.39;63.93
77017;BME280;65949;53.132;17.930;2024-01-07T12:19:29;101831.85;;;-7.34;63.45
77017;BME280;65949;53.132;17.930;2024-01-07T12:22:22;101829.00;;;-7.32;63.69
77017;BME280;65949;53.132;17.930;2024-01-07T12:25:02;101826.81;;;-7.28;63.87
77017;BME280;65949;53.132;17.930;2024-01-07T12:27:29;101828.10;;;-7.32;63.21
77017;BME280;65949;53.132;17.930;2024-01-07T12:29:59;101830.19;;;-7.42;62.99
77017;BME280;65949;53.132;17.930;2024-01-07T12:32:27;101831.52;;;-7.49;64.02
77017;BME280;65949;53.132;17.930;2024-01-07T12:34:57;101827.30;;;-7.44;63.71
77017;BME280;65949;53.132;17.930;2024-01-07T12:37:28;101824.56;;;-7.56;63.48
77017;BME280;65949;53.132;17.930;2024-01-07T12:39:55;101829.66;;;-7.70;64.46
77017;BME280;65949;53.132;17.930;2024-01-07T12:42:21;101827.94;;;-7.77;63.97
77017;BME280;65949;53.132;17.930;2024-01-07T12:44:50;101831.38;;;-7.88;64.39
77017;BME280;65949;53.132;17.930;2024-01-07T12:47:16;101829.65;;;-8.01;64.85